Decoded Metar for OIZB (ZABOL in IRAN) (IATA:N/A) | Meteo·Mobile Aviation Weather
aviador You're here:

OIZB Decoded Metar

ZABOL in IRAN
Report Time2018-09-22 15:00:00
UTC Time2018-09-22 15:10:36
Flight Rules vfr VFR
Wind340° at 14 kt
W.Decomp.*RWY 34: 14.0 kt HW 0.5 kt LCW
W.Rank340° ranks 3
Current wind is below 340° avg. (14.5)
Visibility9999 m
Phenomena:N/A
Clouds:N/A
Expected CloudBase > 11,600 ft AGL from Temp-Dew spread
CeilingNone
Temp28°C (ISA +16)
Dew Point-1°C (15% RH)
Heat Index26.6°C
AAT20.8°C
QNH1012 hPa
Density Alt3,576 ft
Elevation1,604 ft
Report Wrong Elevation
Raw Report
METAR OIZB 221500Z 34014KT CAVOK 28/M01 Q1012=

Extra information for OIZB:More info

Metar Taf Metar & Taf Last 4 Metars F.Rules Stats Wind Profile Meteogram Temp Stats Airport Information Weather charts Add Link Nearby VenuesMetar ALERT Operation Metar Decoded Social comments